sensor_id;sensor_type;location;lat;lon;timestamp;P1;durP1;ratioP1;P2;durP2;ratioP2
3667;SDS011;24099;47.102;15.440;2024-03-08T00:00:06;15.18;;;5.43;;
3667;SDS011;24099;47.102;15.440;2024-03-08T00:02:38;13.93;;;5.70;;
3667;SDS011;24099;47.102;15.440;2024-03-08T00:05:05;12.63;;;5.60;;
3667;SDS011;24099;47.102;15.440;2024-03-08T00:07:34;12.50;;;4.88;;
3667;SDS011;24099;47.102;15.440;2024-03-08T00:10:01;14.13;;;5.20;;
3667;SDS011;24099;47.102;15.440;2024-03-08T00:12:29;10.82;;;5.25;;
3667;SDS011;24099;47.102;15.440;2024-03-08T00:14:56;12.23;;;4.97;;
3667;SDS011;24099;47.102;15.440;2024-03-08T00:17:25;9.95;;;4.93;;
3667;SDS011;24099;47.102;15.440;2024-03-08T00:19:53;12.98;;;5.75;;
3667;SDS011;24099;47.102;15.440;2024-03-08T00:22:20;10.55;;;4.88;;
3667;SDS011;24099;47.102;15.440;2024-03-08T00:24:47;12.18;;;5.15;;
3667;SDS011;24099;47.102;15.440;2024-03-08T00:27:16;7.97;;;4.22;;
3667;SDS011;24099;47.102;15.440;2024-03-08T00:29:42;12.23;;;5.78;;
3667;SDS011;24099;47.102;15.440;2024-03-08T00:32:10;14.15;;;5.18;;
3667;SDS011;24099;47.102;15.440;2024-03-08T00:34:40;10.85;;;4.97;;
3667;SDS011;24099;47.102;15.440;2024-03-08T00:37:08;13.50;;;5.35;;
3667;SDS011;24099;47.102;15.440;2024-03-08T00:39:35;14.45;;;5.65;;
3667;SDS011;24099;47.102;15.440;2024-03-08T00:42:02;10.90;;;5.03;;
3667;SDS011;24099;47.102;15.440;2024-03-08T00:44:29;12.63;;;5.10;;
3667;SDS011;24099;47.102;15.440;2024-03-08T00:46:57;16.70;;;5.50;;
3667;SDS011;24099;47.102;15.440;2024-03-08T00:49:24;10.55;;;5.13;;
3667;SDS011;24099;47.102;15.440;2024-03-08T00:51:53;10.98;;;5.47;;
3667;SDS011;24099;47.102;15.440;2024-03-08T00:54:20;13.48;;;5.68;;
3667;SDS011;24099;47.102;15.440;2024-03-08T00:56:47;12.98;;;5.57;;
3667;SDS011;24099;47.102;15.440;2024-03-08T00:59:16;13.57;;;5.43;;
3667;SDS011;24099;47.102;15.440;2024-03-08T01:01:43;14.75;;;5.30;;
3667;SDS011;24099;47.102;15.440;2024-03-08T01:04:10;12.77;;;5.65;;
3667;SDS011;24099;47.102;15.440;2024-03-08T01:06:37;11.82;;;5.05;;
3667;SDS011;24099;47.102;15.440;2024-03-08T01:09:06;9.35;;;5.28;;
3667;SDS011;24099;47.102;15.440;2024-03-08T01:11:34;12.02;;;5.00;;
3667;SDS011;24099;47.102;15.440;2024-03-08T01:14:02;12.48;;;5.10;;
3667;SDS011;24099;47.102;15.440;2024-03-08T01:16:29;16.33;;;5.68;;
3667;SDS011;24099;47.102;15.440;2024-03-08T01:18:58;14.45;;;5.78;;
3667;SDS011;24099;47.102;15.440;2024-03-08T01:21:25;19.10;;;5.43;;
3667;SDS011;24099;47.102;15.440;2024-03-08T01:23:53;13.98;;;5.88;;
3667;SDS011;24099;47.102;15.440;2024-03-08T01:26:21;14.20;;;6.40;;
3667;SDS011;24099;47.102;15.440;2024-03-08T01:28:48;15.15;;;5.72;;
3667;SDS011;24099;47.102;15.440;2024-03-08T01:31:16;13.00;;;5.72;;
3667;SDS011;24099;47.102;15.440;2024-03-08T01:33:43;15.60;;;6.15;;
3667;SDS011;24099;47.102;15.440;2024-03-08T01:36:10;14.00;;;6.53;;
3667;SDS011;24099;47.102;15.440;2024-03-08T01:38:40;12.48;;;6.20;;
3667;SDS011;24099;47.102;15.440;2024-03-08T01:41:08;17.80;;;5.95;;
3667;SDS011;24099;47.102;15.440;2024-03-08T01:43:37;11.18;;;5.65;;
3667;SDS011;24099;47.102;15.440;2024-03-08T01:46:04;15.25;;;6.00;;
3667;SDS011;24099;47.102;15.440;2024-03-08T01:48:33;10.68;;;5.43;;
3667;SDS011;24099;47.102;15.440;2024-03-08T01:51:01;16.77;;;6.75;;
3667;SDS011;24099;47.102;15.440;2024-03-08T01:53:29;10.93;;;5.07;;
3667;SDS011;24099;47.102;15.440;2024-03-08T01:55:58;11.98;;;6.15;;
3667;SDS011;24099;47.102;15.440;2024-03-08T01:58:26;13.70;;;6.03;;
3667;SDS011;24099;47.102;15.440;2024-03-08T02:00:56;11.45;;;5.88;;
3667;SDS011;24099;47.102;15.440;2024-03-08T02:03:23;14.75;;;5.93;;
3667;SDS011;24099;47.102;15.440;2024-03-08T02:05:50;14.85;;;5.53;;
3667;SDS011;24099;47.102;15.440;2024-03-08T02:08:18;18.13;;;6.10;;
3667;SDS011;24099;47.102;15.440;2024-03-08T02:10:47;13.45;;;6.18;;
3667;SDS011;24099;47.102;15.440;2024-03-08T02:13:15;17.50;;;6.05;;
3667;SDS011;24099;47.102;15.440;2024-03-08T02:15:52;15.85;;;6.78;;
3667;SDS011;24099;47.102;15.440;2024-03-08T02:18:23;13.75;;;5.93;;
3667;SDS011;24099;47.102;15.440;2024-03-08T02:20:52;11.80;;;5.50;;
3667;SDS011;24099;47.102;15.440;2024-03-08T02:23:19;13.55;;;6.15;;
3667;SDS011;24099;47.102;15.440;2024-03-08T02:25:46;13.63;;;5.90;;
3667;SDS011;24099;47.102;15.440;2024-03-08T02:28:14;13.60;;;6.72;;
3667;SDS011;24099;47.102;15.440;2024-03-08T02:30:44;16.27;;;6.93;;
3667;SDS011;24099;47.102;15.440;2024-03-08T02:33:13;19.40;;;7.35;;
3667;SDS011;24099;47.102;15.440;2024-03-08T02:35:42;14.38;;;6.57;;
3667;SDS011;24099;47.102;15.440;2024-03-08T02:38:12;13.73;;;6.40;;
3667;SDS011;24099;47.102;15.440;2024-03-08T02:40:41;16.90;;;6.32;;
3667;SDS011;24099;47.102;15.440;2024-03-08T02:43:09;22.73;;;7.10;;
3667;SDS011;24099;47.102;15.440;2024-03-08T02:45:36;16.17;;;7.13;;
3667;SDS011;24099;47.102;15.440;2024-03-08T02:48:04;12.43;;;6.07;;
3667;SDS011;24099;47.102;15.440;2024-03-08T02:50:32;18.23;;;7.50;;
3667;SDS011;24099;47.102;15.440;2024-03-08T02:53:00;17.08;;;6.70;;
3667;SDS011;24099;47.102;15.440;2024-03-08T02:55:28;15.75;;;6.78;;
3667;SDS011;24099;47.102;15.440;2024-03-08T02:57:55;18.20;;;7.35;;
3667;SDS011;24099;47.102;15.440;2024-03-08T03:00:22;21.05;;;7.22;;
3667;SDS011;24099;47.102;15.440;2024-03-08T03:02:50;15.73;;;6.65;;
3667;SDS011;24099;47.102;15.440;2024-03-08T03:05:19;12.82;;;6.75;;
3667;SDS011;24099;47.102;15.440;2024-03-08T03:07:46;14.18;;;6.47;;
3667;SDS011;24099;47.102;15.440;2024-03-08T03:10:14;18.38;;;7.35;;
3667;SDS011;24099;47.102;15.440;2024-03-08T03:12:44;16.10;;;7.28;;
3667;SDS011;24099;47.102;15.440;2024-03-08T03:15:13;14.27;;;6.22;;
3667;SDS011;24099;47.102;15.440;2024-03-08T03:17:45;14.85;;;6.68;;
3667;SDS011;24099;47.102;15.440;2024-03-08T03:20:13;14.68;;;7.63;;
3667;SDS011;24099;47.102;15.440;2024-03-08T03:22:47;15.05;;;7.05;;
3667;SDS011;24099;47.102;15.440;2024-03-08T03:25:17;15.52;;;6.75;;
3667;SDS011;24099;47.102;15.440;2024-03-08T03:27:52;21.05;;;7.75;;
3667;SDS011;24099;47.102;15.440;2024-03-08T03:30:21;18.13;;;7.55;;
3667;SDS011;24099;47.102;15.440;2024-03-08T03:32:51;18.27;;;6.68;;
3667;SDS011;24099;47.102;15.440;2024-03-08T03:35:19;18.45;;;7.32;;
3667;SDS011;24099;47.102;15.440;2024-03-08T03:37:47;17.15;;;7.93;;
3667;SDS011;24099;47.102;15.440;2024-03-08T03:40:26;16.38;;;6.28;;
3667;SDS011;24099;47.102;15.440;2024-03-08T03:42:55;18.77;;;6.63;;
3667;SDS011;24099;47.102;15.440;2024-03-08T03:45:22;15.07;;;6.90;;
3667;SDS011;24099;47.102;15.440;2024-03-08T03:47:49;15.68;;;6.65;;
3667;SDS011;24099;47.102;15.440;2024-03-08T03:50:17;18.33;;;6.82;;
3667;SDS011;24099;47.102;15.440;2024-03-08T03:52:44;16.17;;;7.05;;
3667;SDS011;24099;47.102;15.440;2024-03-08T03:55:11;16.33;;;7.30;;
3667;SDS011;24099;47.102;15.440;2024-03-08T03:57:39;18.20;;;7.35;;
3667;SDS011;24099;47.102;15.440;2024-03-08T04:00:08;17.90;;;6.63;;
3667;SDS011;24099;47.102;15.440;2024-03-08T04:02:39;12.63;;;6.32;;
3667;SDS011;24099;47.102;15.440;2024-03-08T04:05:07;18.35;;;6.55;;
3667;SDS011;24099;47.102;15.440;2024-03-08T04:07:35;14.43;;;7.07;;
3667;SDS011;24099;47.102;15.440;2024-03-08T04:10:02;13.77;;;6.78;;
3667;SDS011;24099;47.102;15.440;2024-03-08T04:12:31;19.58;;;7.32;;
3667;SDS011;24099;47.102;15.440;2024-03-08T04:14:58;16.38;;;7.18;;
3667;SDS011;24099;47.102;15.440;2024-03-08T04:17:27;19.00;;;7.70;;
3667;SDS011;24099;47.102;15.440;2024-03-08T04:19:54;18.13;;;7.38;;
3667;SDS011;24099;47.102;15.440;2024-03-08T04:22:21;17.88;;;7.47;;
3667;SDS011;24099;47.102;15.440;2024-03-08T04:24:48;23.33;;;7.45;;
3667;SDS011;24099;47.102;15.440;2024-03-08T04:27:16;20.73;;;7.50;;
3667;SDS011;24099;47.102;15.440;2024-03-08T04:29:43;16.02;;;7.15;;
3667;SDS011;24099;47.102;15.440;2024-03-08T04:32:10;17.90;;;7.35;;
3667;SDS011;24099;47.102;15.440;2024-03-08T04:34:40;16.63;;;6.50;;
3667;SDS011;24099;47.102;15.440;2024-03-08T04:37:07;22.60;;;7.97;;
3667;SDS011;24099;47.102;15.440;2024-03-08T04:39:36;22.73;;;9.02;;
3667;SDS011;24099;47.102;15.440;2024-03-08T04:42:03;23.65;;;8.07;;
3667;SDS011;24099;47.102;15.440;2024-03-08T04:44:35;18.83;;;8.52;;
3667;SDS011;24099;47.102;15.440;2024-03-08T04:47:03;17.05;;;7.05;;
3667;SDS011;24099;47.102;15.440;2024-03-08T04:49:31;23.20;;;8.32;;
3667;SDS011;24099;47.102;15.440;2024-03-08T04:52:01;16.27;;;7.05;;
3667;SDS011;24099;47.102;15.440;2024-03-08T04:54:29;17.10;;;7.13;;
3667;SDS011;24099;47.102;15.440;2024-03-08T04:56:56;16.95;;;7.15;;
3667;SDS011;24099;47.102;15.440;2024-03-08T04:59:25;14.10;;;6.28;;
3667;SDS011;24099;47.102;15.440;2024-03-08T05:01:52;17.30;;;6.43;;
3667;SDS011;24099;47.102;15.440;2024-03-08T05:04:20;15.85;;;6.45;;
3667;SDS011;24099;47.102;15.440;2024-03-08T05:06:47;17.65;;;7.55;;
3667;SDS011;24099;47.102;15.440;2024-03-08T05:09:16;16.65;;;7.18;;
3667;SDS011;24099;47.102;15.440;2024-03-08T05:11:44;17.23;;;7.32;;
3667;SDS011;24099;47.102;15.440;2024-03-08T05:14:12;17.92;;;7.28;;
3667;SDS011;24099;47.102;15.440;2024-03-08T05:16:41;13.90;;;6.43;;
3667;SDS011;24099;47.102;15.440;2024-03-08T05:19:09;16.85;;;6.43;;
3667;SDS011;24099;47.102;15.440;2024-03-08T05:21:36;17.48;;;6.47;;
3667;SDS011;24099;47.102;15.440;2024-03-08T05:24:04;11.63;;;5.30;;
3667;SDS011;24099;47.102;15.440;2024-03-08T05:26:33;13.80;;;6.53;;
3667;SDS011;24099;47.102;15.440;2024-03-08T05:29:00;17.58;;;6.20;;
3667;SDS011;24099;47.102;15.440;2024-03-08T05:31:28;22.27;;;6.85;;
3667;SDS011;24099;47.102;15.440;2024-03-08T05:33:56;14.73;;;6.40;;
3667;SDS011;24099;47.102;15.440;2024-03-08T05:36:24;18.27;;;7.55;;
3667;SDS011;24099;47.102;15.440;2024-03-08T05:38:51;16.15;;;7.00;;
3667;SDS011;24099;47.102;15.440;2024-03-08T05:41:19;19.17;;;6.43;;
3667;SDS011;24099;47.102;15.440;2024-03-08T05:43:48;17.77;;;6.75;;
3667;SDS011;24099;47.102;15.440;2024-03-08T05:46:15;14.45;;;6.38;;
3667;SDS011;24099;47.102;15.440;2024-03-08T05:48:43;15.43;;;7.28;;
3667;SDS011;24099;47.102;15.440;2024-03-08T05:51:10;20.80;;;7.32;;
3667;SDS011;24099;47.102;15.440;2024-03-08T05:53:38;18.33;;;8.07;;
3667;SDS011;24099;47.102;15.440;2024-03-08T05:56:05;22.45;;;7.55;;
3667;SDS011;24099;47.102;15.440;2024-03-08T05:58:34;19.15;;;6.85;;
3667;SDS011;24099;47.102;15.440;2024-03-08T06:01:03;16.25;;;7.25;;
3667;SDS011;24099;47.102;15.440;2024-03-08T06:03:33;22.35;;;7.88;;
3667;SDS011;24099;47.102;15.440;2024-03-08T06:06:00;20.13;;;7.70;;
3667;SDS011;24099;47.102;15.440;2024-03-08T06:08:27;19.30;;;7.82;;
3667;SDS011;24099;47.102;15.440;2024-03-08T06:10:56;20.45;;;7.95;;
3667;SDS011;24099;47.102;15.440;2024-03-08T06:13:24;19.70;;;7.60;;
3667;SDS011;24099;47.102;15.440;2024-03-08T06:15:51;26.73;;;8.65;;
3667;SDS011;24099;47.102;15.440;2024-03-08T06:18:20;22.25;;;8.93;;
3667;SDS011;24099;47.102;15.440;2024-03-08T06:20:47;21.50;;;9.27;;
3667;SDS011;24099;47.102;15.440;2024-03-08T06:23:14;21.10;;;8.65;;
3667;SDS011;24099;47.102;15.440;2024-03-08T06:25:43;17.83;;;8.32;;
3667;SDS011;24099;47.102;15.440;2024-03-08T06:28:10;26.50;;;9.45;;
3667;SDS011;24099;47.102;15.440;2024-03-08T06:30:37;24.75;;;10.18;;
3667;SDS011;24099;47.102;15.440;2024-03-08T06:33:04;24.88;;;9.38;;
3667;SDS011;24099;47.102;15.440;2024-03-08T06:35:33;31.88;;;8.98;;
3667;SDS011;24099;47.102;15.440;2024-03-08T06:38:03;21.02;;;8.93;;
3667;SDS011;24099;47.102;15.440;2024-03-08T06:40:30;25.45;;;9.93;;
3667;SDS011;24099;47.102;15.440;2024-03-08T06:42:57;24.52;;;8.55;;
3667;SDS011;24099;47.102;15.440;2024-03-08T06:45:24;22.08;;;8.80;;
3667;SDS011;24099;47.102;15.440;2024-03-08T06:47:52;23.15;;;8.95;;
3667;SDS011;24099;47.102;15.440;2024-03-08T06:50:20;25.08;;;8.65;;
3667;SDS011;24099;47.102;15.440;2024-03-08T06:52:49;22.48;;;9.00;;
3667;SDS011;24099;47.102;15.440;2024-03-08T06:55:18;18.15;;;9.23;;
3667;SDS011;24099;47.102;15.440;2024-03-08T06:57:46;22.33;;;8.90;;
3667;SDS011;24099;47.102;15.440;2024-03-08T07:00:13;24.05;;;10.55;;
3667;SDS011;24099;47.102;15.440;2024-03-08T07:02:43;21.75;;;9.18;;
3667;SDS011;24099;47.102;15.440;2024-03-08T07:05:14;24.88;;;8.40;;
3667;SDS011;24099;47.102;15.440;2024-03-08T07:07:41;21.98;;;8.32;;
3667;SDS011;24099;47.102;15.440;2024-03-08T07:10:10;23.05;;;9.32;;
3667;SDS011;24099;47.102;15.440;2024-03-08T07:12:40;24.10;;;10.10;;
3667;SDS011;24099;47.102;15.440;2024-03-08T07:15:07;20.50;;;8.45;;
3667;SDS011;24099;47.102;15.440;2024-03-08T07:17:38;26.73;;;8.85;;
3667;SDS011;24099;47.102;15.440;2024-03-08T07:20:06;23.15;;;9.63;;
3667;SDS011;24099;47.102;15.440;2024-03-08T07:22:37;22.30;;;9.38;;
3667;SDS011;24099;47.102;15.440;2024-03-08T07:25:04;28.77;;;9.82;;
3667;SDS011;24099;47.102;15.440;2024-03-08T07:27:47;29.42;;;10.82;;
3667;SDS011;24099;47.102;15.440;2024-03-08T07:30:14;23.45;;;9.02;;
3667;SDS011;24099;47.102;15.440;2024-03-08T07:33:04;26.70;;;9.75;;
3667;SDS011;24099;47.102;15.440;2024-03-08T07:35:32;26.27;;;8.75;;
3667;SDS011;24099;47.102;15.440;2024-03-08T07:38:02;21.83;;;8.45;;
3667;SDS011;24099;47.102;15.440;2024-03-08T07:40:30;29.50;;;9.98;;
3667;SDS011;24099;47.102;15.440;2024-03-08T07:43:00;24.23;;;8.98;;
3667;SDS011;24099;47.102;15.440;2024-03-08T07:45:27;24.77;;;9.45;;
3667;SDS011;24099;47.102;15.440;2024-03-08T07:47:56;23.42;;;8.50;;
3667;SDS011;24099;47.102;15.440;2024-03-08T07:50:23;20.90;;;7.63;;
3667;SDS011;24099;47.102;15.440;2024-03-08T07:52:50;21.35;;;8.20;;
3667;SDS011;24099;47.102;15.440;2024-03-08T07:55:17;26.77;;;9.05;;
3667;SDS011;24099;47.102;15.440;2024-03-08T07:57:45;22.23;;;8.73;;
3667;SDS011;24099;47.102;15.440;2024-03-08T08:00:15;24.08;;;9.52;;
3667;SDS011;24099;47.102;15.440;2024-03-08T08:02:44;24.30;;;8.85;;
3667;SDS011;24099;47.102;15.440;2024-03-08T08:05:11;24.42;;;8.68;;
3667;SDS011;24099;47.102;15.440;2024-03-08T08:07:39;24.75;;;9.13;;
3667;SDS011;24099;47.102;15.440;2024-03-08T08:10:09;30.23;;;10.38;;
3667;SDS011;24099;47.102;15.440;2024-03-08T08:12:42;25.35;;;12.15;;
3667;SDS011;24099;47.102;15.440;2024-03-08T08:15:09;30.92;;;12.95;;
3667;SDS011;24099;47.102;15.440;2024-03-08T08:17:38;35.35;;;11.80;;
3667;SDS011;24099;47.102;15.440;2024-03-08T08:20:05;26.58;;;11.80;;
3667;SDS011;24099;47.102;15.440;2024-03-08T08:22:33;31.05;;;10.93;;
3667;SDS011;24099;47.102;15.440;2024-03-08T08:25:00;28.13;;;11.65;;
3667;SDS011;24099;47.102;15.440;2024-03-08T08:27:28;33.00;;;11.80;;
3667;SDS011;24099;47.102;15.440;2024-03-08T08:29:55;22.83;;;11.07;;
3667;SDS011;24099;47.102;15.440;2024-03-08T08:32:22;25.80;;;10.50;;
3667;SDS011;24099;47.102;15.440;2024-03-08T08:34:51;25.17;;;9.27;;
3667;SDS011;24099;47.102;15.440;2024-03-08T08:37:18;26.40;;;10.13;;
3667;SDS011;24099;47.102;15.440;2024-03-08T08:39:45;27.38;;;10.02;;
3667;SDS011;24099;47.102;15.440;2024-03-08T08:42:12;22.20;;;9.52;;
3667;SDS011;24099;47.102;15.440;2024-03-08T08:44:40;23.08;;;8.82;;
3667;SDS011;24099;47.102;15.440;2024-03-08T08:47:07;24.52;;;9.60;;
3667;SDS011;24099;47.102;15.440;2024-03-08T08:49:34;22.92;;;9.60;;
3667;SDS011;24099;47.102;15.440;2024-03-08T08:52:03;22.80;;;8.63;;
3667;SDS011;24099;47.102;15.440;2024-03-08T08:54:30;22.42;;;8.85;;
3667;SDS011;24099;47.102;15.440;2024-03-08T08:56:58;20.20;;;8.65;;
3667;SDS011;24099;47.102;15.440;2024-03-08T08:59:25;20.90;;;8.18;;
3667;SDS011;24099;47.102;15.440;2024-03-08T09:01:52;25.13;;;7.80;;
3667;SDS011;24099;47.102;15.440;2024-03-08T09:04:20;18.38;;;8.38;;
3667;SDS011;24099;47.102;15.440;2024-03-08T09:06:48;23.08;;;8.73;;
3667;SDS011;24099;47.102;15.440;2024-03-08T09:09:16;15.68;;;7.22;;
3667;SDS011;24099;47.102;15.440;2024-03-08T09:11:44;21.77;;;8.00;;
3667;SDS011;24099;47.102;15.440;2024-03-08T09:14:11;20.08;;;8.73;;
3667;SDS011;24099;47.102;15.440;2024-03-08T09:16:39;17.15;;;7.97;;
3667;SDS011;24099;47.102;15.440;2024-03-08T09:19:06;16.38;;;7.25;;
3667;SDS011;24099;47.102;15.440;2024-03-08T09:21:36;19.65;;;7.28;;
3667;SDS011;24099;47.102;15.440;2024-03-08T09:24:05;16.35;;;7.47;;
3667;SDS011;24099;47.102;15.440;2024-03-08T09:26:34;14.57;;;7.35;;
3667;SDS011;24099;47.102;15.440;2024-03-08T09:29:01;18.55;;;7.10;;
3667;SDS011;24099;47.102;15.440;2024-03-08T09:31:28;17.30;;;7.78;;
3667;SDS011;24099;47.102;15.440;2024-03-08T09:33:55;13.82;;;6.95;;
3667;SDS011;24099;47.102;15.440;2024-03-08T09:36:22;18.95;;;7.15;;
3667;SDS011;24099;47.102;15.440;2024-03-08T09:38:50;12.27;;;6.40;;
3667;SDS011;24099;47.102;15.440;2024-03-08T09:41:18;12.57;;;6.30;;
3667;SDS011;24099;47.102;15.440;2024-03-08T09:43:47;12.82;;;6.40;;
3667;SDS011;24099;47.102;15.440;2024-03-08T09:46:14;12.82;;;6.32;;
3667;SDS011;24099;47.102;15.440;2024-03-08T09:48:42;15.10;;;5.88;;
3667;SDS011;24099;47.102;15.440;2024-03-08T09:51:10;12.88;;;5.88;;
3667;SDS011;24099;47.102;15.440;2024-03-08T09:53:40;15.20;;;5.72;;
3667;SDS011;24099;47.102;15.440;2024-03-08T09:56:08;14.10;;;6.72;;
3667;SDS011;24099;47.102;15.440;2024-03-08T09:58:37;11.77;;;5.85;;
3667;SDS011;24099;47.102;15.440;2024-03-08T10:01:21;15.85;;;6.28;;
3667;SDS011;24099;47.102;15.440;2024-03-08T10:03:48;11.52;;;5.47;;
3667;SDS011;24099;47.102;15.440;2024-03-08T10:06:15;12.93;;;5.70;;
3667;SDS011;24099;47.102;15.440;2024-03-08T10:08:43;10.75;;;5.82;;
3667;SDS011;24099;47.102;15.440;2024-03-08T10:11:11;11.77;;;5.50;;
3667;SDS011;24099;47.102;15.440;2024-03-08T10:13:38;12.38;;;5.82;;
3667;SDS011;24099;47.102;15.440;2024-03-08T10:16:07;14.50;;;6.00;;
3667;SDS011;24099;47.102;15.440;2024-03-08T10:18:36;13.65;;;5.25;;
3667;SDS011;24099;47.102;15.440;2024-03-08T10:21:04;13.70;;;4.60;;
3667;SDS011;24099;47.102;15.440;2024-03-08T10:23:32;8.10;;;4.32;;
3667;SDS011;24099;47.102;15.440;2024-03-08T10:26:09;13.73;;;4.88;;
3667;SDS011;24099;47.102;15.440;2024-03-08T10:28:40;14.82;;;6.45;;
3667;SDS011;24099;47.102;15.440;2024-03-08T10:31:12;12.77;;;5.57;;
3667;SDS011;24099;47.102;15.440;2024-03-08T10:36:22;11.15;;;4.72;;
3667;SDS011;24099;47.102;15.440;2024-03-08T10:38:50;12.40;;;4.93;;
3667;SDS011;24099;47.102;15.440;2024-03-08T10:41:19;7.47;;;4.30;;
3667;SDS011;24099;47.102;15.440;2024-03-08T10:43:54;6.55;;;3.58;;
3667;SDS011;24099;47.102;15.440;2024-03-08T10:46:35;7.55;;;4.45;;
3667;SDS011;24099;47.102;15.440;2024-03-08T10:51:40;7.20;;;4.40;;
3667;SDS011;24099;47.102;15.440;2024-03-08T10:54:07;13.32;;;4.53;;
3667;SDS011;24099;47.102;15.440;2024-03-08T10:56:41;11.35;;;5.00;;
3667;SDS011;24099;47.102;15.440;2024-03-08T10:59:09;7.30;;;4.13;;
3667;SDS011;24099;47.102;15.440;2024-03-08T11:01:37;11.43;;;4.72;;
3667;SDS011;24099;47.102;15.440;2024-03-08T11:04:05;7.32;;;4.40;;
3667;SDS011;24099;47.102;15.440;2024-03-08T11:06:42;9.32;;;4.88;;
3667;SDS011;24099;47.102;15.440;2024-03-08T11:09:22;10.20;;;4.75;;
3667;SDS011;24099;47.102;15.440;2024-03-08T11:14:46;8.70;;;4.45;;
3667;SDS011;24099;47.102;15.440;2024-03-08T11:17:15;13.57;;;5.45;;
3667;SDS011;24099;47.102;15.440;2024-03-08T11:19:47;9.52;;;5.22;;
3667;SDS011;24099;47.102;15.440;2024-03-08T11:22:22;8.63;;;4.88;;
3667;SDS011;24099;47.102;15.440;2024-03-08T11:24:52;11.70;;;5.32;;
3667;SDS011;24099;47.102;15.440;2024-03-08T11:27:19;11.48;;;5.53;;
3667;SDS011;24099;47.102;15.440;2024-03-08T11:29:58;9.32;;;4.53;;
3667;SDS011;24099;47.102;15.440;2024-03-08T11:32:34;7.65;;;4.15;;
3667;SDS011;24099;47.102;15.440;2024-03-08T11:35:05;12.05;;;4.68;;
3667;SDS011;24099;47.102;15.440;2024-03-08T11:37:35;7.88;;;4.57;;
3667;SDS011;24099;47.102;15.440;2024-03-08T11:40:06;9.65;;;4.43;;
3667;SDS011;24099;47.102;15.440;2024-03-08T11:42:43;11.68;;;5.13;;
3667;SDS011;24099;47.102;15.440;2024-03-08T11:45:12;9.40;;;4.75;;
3667;SDS011;24099;47.102;15.440;2024-03-08T11:47:41;8.75;;;4.30;;
3667;SDS011;24099;47.102;15.440;2024-03-08T11:50:11;6.78;;;4.03;;
3667;SDS011;24099;47.102;15.440;2024-03-08T11:52:40;19.00;;;4.25;;
3667;SDS011;24099;47.102;15.440;2024-03-08T11:55:09;9.68;;;4.55;;
3667;SDS011;24099;47.102;15.440;2024-03-08T11:57:38;7.93;;;4.20;;
3667;SDS011;24099;47.102;15.440;2024-03-08T12:00:14;8.27;;;3.85;;
3667;SDS011;24099;47.102;15.440;2024-03-08T12:06:00;7.63;;;3.72;;
3667;SDS011;24099;47.102;15.440;2024-03-08T12:08:31;7.65;;;3.75;;
3667;SDS011;24099;47.102;15.440;2024-03-08T12:10:58;5.88;;;3.70;;
3667;SDS011;24099;47.102;15.440;2024-03-08T12:13:26;5.40;;;2.90;;
3667;SDS011;24099;47.102;15.440;2024-03-08T12:15:55;6.55;;;3.78;;
3667;SDS011;24099;47.102;15.440;2024-03-08T12:18:23;7.00;;;3.78;;
3667;SDS011;24099;47.102;15.440;2024-03-08T12:20:51;6.38;;;3.50;;
3667;SDS011;24099;47.102;15.440;2024-03-08T12:23:21;7.63;;;4.05;;
3667;SDS011;24099;47.102;15.440;2024-03-08T12:25:53;6.80;;;3.75;;
3667;SDS011;24099;47.102;15.440;2024-03-08T12:28:24;5.50;;;3.30;;
3667;SDS011;24099;47.102;15.440;2024-03-08T12:31:11;6.00;;;3.45;;
3667;SDS011;24099;47.102;15.440;2024-03-08T12:33:47;8.15;;;3.35;;
3667;SDS011;24099;47.102;15.440;2024-03-08T12:36:15;6.90;;;3.47;;
3667;SDS011;24099;47.102;15.440;2024-03-08T12:38:43;9.07;;;3.58;;
3667;SDS011;24099;47.102;15.440;2024-03-08T12:41:45;10.85;;;3.78;;
3667;SDS011;24099;47.102;15.440;2024-03-08T12:44:13;6.50;;;3.70;;
3667;SDS011;24099;47.102;15.440;2024-03-08T12:46:41;5.95;;;3.58;;
3667;SDS011;24099;47.102;15.440;2024-03-08T12:49:10;7.03;;;3.22;;
3667;SDS011;24099;47.102;15.440;2024-03-08T12:51:37;6.45;;;3.95;;
3667;SDS011;24099;47.102;15.440;2024-03-08T12:54:06;10.13;;;4.13;;
3667;SDS011;24099;47.102;15.440;2024-03-08T12:56:34;6.22;;;3.83;;
3667;SDS011;24099;47.102;15.440;2024-03-08T12:59:04;7.10;;;3.65;;
3667;SDS011;24099;47.102;15.440;2024-03-08T13:01:52;6.57;;;3.75;;
3667;SDS011;24099;47.102;15.440;2024-03-08T13:04:21;8.43;;;4.00;;
3667;SDS011;24099;47.102;15.440;2024-03-08T13:06:50;6.78;;;3.78;;
3667;SDS011;24099;47.102;15.440;2024-03-08T13:13:02;6.63;;;3.78;;
3667;SDS011;24099;47.102;15.440;2024-03-08T13:15:51;6.50;;;3.88;;
3667;SDS011;24099;47.102;15.440;2024-03-08T13:18:34;9.25;;;3.90;;
3667;SDS011;24099;47.102;15.440;2024-03-08T13:24:15;8.23;;;4.10;;
3667;SDS011;24099;47.102;15.440;2024-03-08T13:27:03;8.18;;;3.85;;
3667;SDS011;24099;47.102;15.440;2024-03-08T13:29:42;7.25;;;3.90;;
3667;SDS011;24099;47.102;15.440;2024-03-08T13:32:10;6.72;;;3.70;;
3667;SDS011;24099;47.102;15.440;2024-03-08T13:34:40;9.30;;;4.35;;
3667;SDS011;24099;47.102;15.440;2024-03-08T13:37:08;7.40;;;3.92;;
3667;SDS011;24099;47.102;15.440;2024-03-08T13:39:36;9.43;;;3.55;;
3667;SDS011;24099;47.102;15.440;2024-03-08T13:42:09;10.27;;;3.92;;
3667;SDS011;24099;47.102;15.440;2024-03-08T13:44:38;6.00;;;3.40;;
3667;SDS011;24099;47.102;15.440;2024-03-08T13:47:11;8.02;;;4.13;;
3667;SDS011;24099;47.102;15.440;2024-03-08T13:49:38;8.60;;;3.83;;
3667;SDS011;24099;47.102;15.440;2024-03-08T13:52:06;8.57;;;4.18;;
3667;SDS011;24099;47.102;15.440;2024-03-08T13:54:34;7.25;;;3.83;;
3667;SDS011;24099;47.102;15.440;2024-03-08T13:57:02;7.13;;;3.78;;
3667;SDS011;24099;47.102;15.440;2024-03-08T13:59:30;8.05;;;4.28;;
3667;SDS011;24099;47.102;15.440;2024-03-08T14:01:58;7.35;;;3.88;;
3667;SDS011;24099;47.102;15.440;2024-03-08T14:04:28;7.07;;;3.60;;
3667;SDS011;24099;47.102;15.440;2024-03-08T14:06:55;9.05;;;4.18;;
3667;SDS011;24099;47.102;15.440;2024-03-08T14:09:28;7.82;;;4.50;;
3667;SDS011;24099;47.102;15.440;2024-03-08T14:11:56;8.10;;;4.43;;
3667;SDS011;24099;47.102;15.440;2024-03-08T14:14:23;7.97;;;4.43;;
3667;SDS011;24099;47.102;15.440;2024-03-08T14:16:51;9.00;;;4.78;;
3667;SDS011;24099;47.102;15.440;2024-03-08T14:19:20;10.35;;;4.50;;
3667;SDS011;24099;47.102;15.440;2024-03-08T14:21:49;9.60;;;4.30;;
3667;SDS011;24099;47.102;15.440;2024-03-08T14:24:18;8.38;;;4.38;;
3667;SDS011;24099;47.102;15.440;2024-03-08T14:26:46;9.93;;;4.93;;
3667;SDS011;24099;47.102;15.440;2024-03-08T14:29:14;11.02;;;4.85;;
3667;SDS011;24099;47.102;15.440;2024-03-08T14:31:43;10.85;;;5.28;;
3667;SDS011;24099;47.102;15.440;2024-03-08T14:34:10;8.25;;;4.78;;
3667;SDS011;24099;47.102;15.440;2024-03-08T14:36:39;9.98;;;4.75;;
3667;SDS011;24099;47.102;15.440;2024-03-08T14:39:08;7.97;;;4.68;;
3667;SDS011;24099;47.102;15.440;2024-03-08T14:41:35;9.40;;;5.00;;
3667;SDS011;24099;47.102;15.440;2024-03-08T14:44:02;7.97;;;4.50;;
3667;SDS011;24099;47.102;15.440;2024-03-08T14:46:30;9.32;;;4.57;;
3667;SDS011;24099;47.102;15.440;2024-03-08T14:48:57;8.52;;;4.68;;
3667;SDS011;24099;47.102;15.440;2024-03-08T14:51:27;8.98;;;4.18;;
3667;SDS011;24099;47.102;15.440;2024-03-08T14:53:55;10.18;;;4.90;;
3667;SDS011;24099;47.102;15.440;2024-03-08T14:56:23;9.60;;;5.05;;
3667;SDS011;24099;47.102;15.440;2024-03-08T14:58:52;10.18;;;4.95;;
3667;SDS011;24099;47.102;15.440;2024-03-08T15:01:20;9.85;;;4.90;;
3667;SDS011;24099;47.102;15.440;2024-03-08T15:03:53;11.05;;;5.35;;
3667;SDS011;24099;47.102;15.440;2024-03-08T15:06:20;7.82;;;4.35;;